Time;durP1;ratioP1;P1;durP2;ratioP2;P2;SDS_P1;SDS_P2;PMS_P1;PMS_P2;Temp;Humidity;BMP_temperature;BMP_pressure;BME280_temperature;BME280_humidity;BME280_pressure;Samples;Min_cycle;Max_cycle;Signal;HPM_P1;HPM_P2
2020/12/21 00:00:09;;;;;;;12.27;8.85;;;;;;;;;;5047775;28;20024;-77
2020/12/21 00:02:54;;;;;;;10.65;7.18;;;;;;;;;;5047343;28;20024;-77
2020/12/21 00:05:39;;;;;;;12.02;8.15;;;;;;;;;;5040423;28;20131;-77
2020/12/21 00:08:24;;;;;;;15.30;7.28;;;;;;;;;;5049677;28;20024;-78
2020/12/21 00:11:10;;;;;;;14.90;8.43;;;;;;;;;;5047843;28;20029;-77
2020/12/21 00:13:55;;;;;;;13.70;7.60;;;;;;;;;;5039493;28;20024;-77
2020/12/21 00:16:42;;;;;;;13.52;8.50;;;;;;;;;;5048320;28;20056;-77
2020/12/21 00:19:29;;;;;;;14.80;7.57;;;;;;;;;;5053860;28;20049;-76
2020/12/21 00:22:16;;;;;;;10.73;7.95;;;;;;;;;;5044152;28;20198;-77
2020/12/21 00:25:01;;;;;;;14.07;8.98;;;;;;;;;;5041897;28;20028;-77
2020/12/21 00:27:46;;;;;;;12.25;8.50;;;;;;;;;;5048509;28;20494;-77
2020/12/21 00:30:31;;;;;;;14.85;8.60;;;;;;;;;;5045925;28;20701;-76
2020/12/21 00:33:17;;;;;;;8.52;6.53;;;;;;;;;;5050186;28;20029;-76
2020/12/21 00:36:02;;;;;;;12.93;7.15;;;;;;;;;;5045172;28;20043;-76
2020/12/21 00:38:47;;;;;;;12.40;7.78;;;;;;;;;;5047689;28;20025;-78
2020/12/21 00:41:33;;;;;;;12.18;6.53;;;;;;;;;;5044285;28;20023;-77
2020/12/21 00:44:18;;;;;;;11.73;7.47;;;;;;;;;;5041923;28;20025;-77
2020/12/21 00:47:03;;;;;;;10.50;7.55;;;;;;;;;;5030432;28;20029;-77
2020/12/21 00:49:49;;;;;;;11.15;6.78;;;;;;;;;;5048045;28;20031;-77
2020/12/21 00:52:34;;;;;;;12.93;8.10;;;;;;;;;;5050895;28;20025;-76
2020/12/21 00:55:19;;;;;;;11.18;7.40;;;;;;;;;;5045767;28;20027;-76
2020/12/21 00:58:04;;;;;;;11.25;6.72;;;;;;;;;;5046692;28;20024;-76
2020/12/21 01:00:50;;;;;;;11.80;6.70;;;;;;;;;;5041768;28;20031;-77
2020/12/21 01:03:36;;;;;;;8.05;5.78;;;;;;;;;;5051820;28;20131;-76
2020/12/21 01:06:21;;;;;;;8.93;5.55;;;;;;;;;;5046494;28;20117;-77
2020/12/21 01:09:10;;;;;;;9.75;5.25;;;;;;;;;;5041947;28;20574;-76
2020/12/21 01:11:55;;;;;;;8.30;5.43;;;;;;;;;;5042465;28;20044;-78
2020/12/21 01:14:40;;;;;;;10.68;6.32;;;;;;;;;;5039847;28;20023;-78
2020/12/21 01:17:30;;;;;;;11.80;7.13;;;;;;;;;;5043780;28;20114;-77
2020/12/21 01:20:15;;;;;;;10.27;6.28;;;;;;;;;;5054536;28;20051;-77
2020/12/21 01:23:01;;;;;;;15.35;5.57;;;;;;;;;;5044528;28;20028;-77
2020/12/21 01:25:46;;;;;;;9.55;6.07;;;;;;;;;;5040599;28;20158;-77
2020/12/21 01:28:31;;;;;;;9.35;5.90;;;;;;;;;;5042770;28;20032;-78
2020/12/21 01:31:17;;;;;;;11.32;6.43;;;;;;;;;;5044765;28;20040;-77
2020/12/21 01:34:03;;;;;;;11.30;5.93;;;;;;;;;;5050364;28;20596;-78
2020/12/21 01:36:48;;;;;;;11.38;7.13;;;;;;;;;;5049807;28;20035;-76
2020/12/21 01:39:33;;;;;;;9.45;5.15;;;;;;;;;;5051973;28;20427;-76
2020/12/21 01:42:18;;;;;;;9.60;4.18;;;;;;;;;;5043192;28;20070;-76
2020/12/21 01:45:05;;;;;;;8.15;4.60;;;;;;;;;;5047823;28;20047;-76
2020/12/21 01:47:50;;;;;;;7.32;4.22;;;;;;;;;;5037250;28;20479;-76
2020/12/21 01:50:35;;;;;;;9.35;5.35;;;;;;;;;;5051507;28;20521;-76
2020/12/21 01:53:20;;;;;;;8.77;4.30;;;;;;;;;;5043985;28;20040;-76
2020/12/21 01:56:06;;;;;;;7.93;4.32;;;;;;;;;;5047575;28;20063;-78
2020/12/21 01:58:51;;;;;;;6.28;3.58;;;;;;;;;;5032030;28;20032;-77
2020/12/21 02:01:37;;;;;;;4.35;3.15;;;;;;;;;;5046816;28;20020;-76
2020/12/21 02:04:23;;;;;;;4.43;3.17;;;;;;;;;;5049997;28;20048;-76
2020/12/21 02:07:11;;;;;;;7.50;2.65;;;;;;;;;;5054581;28;20028;-76
2020/12/21 02:09:56;;;;;;;5.68;3.00;;;;;;;;;;5048236;28;20025;-77
2020/12/21 02:12:41;;;;;;;5.00;2.83;;;;;;;;;;5050588;28;20047;-77
2020/12/21 02:15:27;;;;;;;5.15;2.53;;;;;;;;;;5029918;28;20025;-77
2020/12/21 02:18:12;;;;;;;5.35;3.67;;;;;;;;;;5047661;28;20407;-77
2020/12/21 02:20:57;;;;;;;9.55;3.88;;;;;;;;;;5050799;28;20029;-77
2020/12/21 02:23:42;;;;;;;6.00;3.47;;;;;;;;;;5045578;28;20025;-77
2020/12/21 02:26:28;;;;;;;8.32;4.05;;;;;;;;;;5049367;28;20021;-78
2020/12/21 02:29:13;;;;;;;7.63;3.00;;;;;;;;;;5052452;28;20013;-77
2020/12/21 02:31:59;;;;;;;5.82;3.30;;;;;;;;;;5053965;28;20036;-77
2020/12/21 02:34:44;;;;;;;6.25;3.30;;;;;;;;;;5053101;28;20032;-77
2020/12/21 02:37:29;;;;;;;3.80;2.70;;;;;;;;;;5046015;28;20047;-77
2020/12/21 02:40:15;;;;;;;7.97;3.92;;;;;;;;;;5049436;28;20433;-76
2020/12/21 02:43:00;;;;;;;6.28;3.85;;;;;;;;;;5048853;28;20017;-77
2020/12/21 02:45:45;;;;;;;4.97;3.67;;;;;;;;;;5044126;28;20082;-77
2020/12/21 02:48:30;;;;;;;6.50;3.08;;;;;;;;;;5048478;28;20108;-76
2020/12/21 02:51:16;;;;;;;9.07;3.38;;;;;;;;;;5046220;28;20044;-76
2020/12/21 02:54:01;;;;;;;5.13;3.15;;;;;;;;;;5054905;28;20021;-76
2020/12/21 02:56:51;;;;;;;6.80;3.30;;;;;;;;;;5048630;28;20035;-76
2020/12/21 02:59:36;;;;;;;6.97;2.67;;;;;;;;;;5048185;28;20051;-76
2020/12/21 03:02:21;;;;;;;4.68;2.33;;;;;;;;;;5037787;28;20043;-76
2020/12/21 03:05:07;;;;;;;4.70;2.78;;;;;;;;;;5049923;28;20052;-76
2020/12/21 03:07:52;;;;;;;5.45;2.75;;;;;;;;;;5046742;28;20066;-76
2020/12/21 03:10:38;;;;;;;6.55;2.60;;;;;;;;;;5045970;28;20502;-76
2020/12/21 03:13:23;;;;;;;7.40;2.90;;;;;;;;;;5044439;28;20487;-76
2020/12/21 03:16:08;;;;;;;4.82;2.83;;;;;;;;;;5048881;28;20025;-76
2020/12/21 03:18:54;;;;;;;4.85;3.10;;;;;;;;;;5052696;28;20114;-76
2020/12/21 03:21:39;;;;;;;5.20;2.80;;;;;;;;;;5039047;28;20493;-77
2020/12/21 03:24:24;;;;;;;4.53;3.03;;;;;;;;;;5061314;28;20012;-76
2020/12/21 03:27:09;;;;;;;4.57;3.22;;;;;;;;;;5050144;28;20055;-76
2020/12/21 03:29:55;;;;;;;6.75;2.95;;;;;;;;;;5049203;28;20025;-76
2020/12/21 03:32:40;;;;;;;7.90;3.50;;;;;;;;;;5041754;28;20021;-76
2020/12/21 03:35:26;;;;;;;5.22;3.58;;;;;;;;;;5036306;28;20051;-76
2020/12/21 03:38:11;;;;;;;8.55;4.13;;;;;;;;;;5046609;28;20090;-76
2020/12/21 03:41:16;;;;;;;4.03;2.90;;;;;;;;;;5049063;28;20387;-76
2020/12/21 03:44:02;;;;;;;5.15;3.30;;;;;;;;;;5047393;28;20123;-77
2020/12/21 03:46:47;;;;;;;5.07;2.70;;;;;;;;;;5046599;28;20028;-77
2020/12/21 03:49:32;;;;;;;8.13;3.35;;;;;;;;;;5046068;28;20029;-75
2020/12/21 03:52:18;;;;;;;8.57;4.00;;;;;;;;;;5042355;28;20029;-76
2020/12/21 03:55:03;;;;;;;4.35;3.00;;;;;;;;;;5054068;28;20091;-76
2020/12/21 03:57:48;;;;;;;4.68;3.47;;;;;;;;;;5050432;28;20032;-76
2020/12/21 04:00:33;;;;;;;7.13;3.53;;;;;;;;;;5050595;28;20067;-76
2020/12/21 04:03:19;;;;;;;5.30;3.13;;;;;;;;;;5029883;28;20032;-76
2020/12/21 04:06:04;;;;;;;6.90;3.60;;;;;;;;;;5048082;28;20166;-76
2020/12/21 04:08:49;;;;;;;7.03;3.10;;;;;;;;;;5048000;28;20039;-76
2020/12/21 04:11:34;;;;;;;8.95;4.90;;;;;;;;;;5048136;28;20058;-76
2020/12/21 04:14:19;;;;;;;8.60;4.05;;;;;;;;;;5045408;28;20031;-77
2020/12/21 04:17:05;;;;;;;4.70;3.28;;;;;;;;;;5046572;28;20356;-76
2020/12/21 04:19:50;;;;;;;6.55;3.60;;;;;;;;;;5046267;28;20046;-75
2020/12/21 04:22:35;;;;;;;5.95;3.65;;;;;;;;;;5044881;28;20063;-77
2020/12/21 04:25:20;;;;;;;7.03;3.30;;;;;;;;;;5046870;28;20036;-75
2020/12/21 04:28:06;;;;;;;6.28;3.42;;;;;;;;;;5052608;28;20055;-75
2020/12/21 04:30:51;;;;;;;8.10;5.03;;;;;;;;;;5045279;28;20032;-76
2020/12/21 04:33:36;;;;;;;5.18;3.63;;;;;;;;;;5042815;28;20028;-75
2020/12/21 04:36:21;;;;;;;6.18;3.33;;;;;;;;;;5048851;28;20432;-76
2020/12/21 04:39:06;;;;;;;7.97;4.40;;;;;;;;;;5045528;28;20534;-75
2020/12/21 04:41:55;;;;;;;5.57;3.85;;;;;;;;;;5045204;28;20360;-76
2020/12/21 04:44:41;;;;;;;8.23;3.87;;;;;;;;;;5046629;28;20623;-76
2020/12/21 04:47:26;;;;;;;7.80;4.53;;;;;;;;;;5052134;28;20345;-76
2020/12/21 04:50:18;;;;;;;8.38;3.78;;;;;;;;;;5043224;28;20032;-76
2020/12/21 04:53:06;;;;;;;6.80;3.13;;;;;;;;;;5049271;28;20020;-76
2020/12/21 04:55:52;;;;;;;6.07;2.63;;;;;;;;;;5046131;28;20027;-75
2020/12/21 04:58:43;;;;;;;6.82;3.80;;;;;;;;;;5047824;28;20020;-76
2020/12/21 05:01:28;;;;;;;5.18;3.13;;;;;;;;;;5043254;28;20379;-76
2020/12/21 05:04:14;;;;;;;6.68;3.65;;;;;;;;;;5042603;28;20048;-76
2020/12/21 05:06:59;;;;;;;8.77;3.83;;;;;;;;;;5038963;28;20708;-76
2020/12/21 05:09:44;;;;;;;4.88;3.10;;;;;;;;;;5050379;28;20082;-76
2020/12/21 05:12:30;;;;;;;6.15;3.38;;;;;;;;;;5043996;28;20068;-76
2020/12/21 05:15:16;;;;;;;7.97;3.67;;;;;;;;;;5047612;28;20104;-75
2020/12/21 05:18:04;;;;;;;6.68;3.72;;;;;;;;;;5046874;28;20407;-76
2020/12/21 05:20:57;;;;;;;5.82;3.72;;;;;;;;;;5043224;28;20798;-76
2020/12/21 05:23:55;;;;;;;10.18;4.93;;;;;;;;;;5046113;28;20352;-77
2020/12/21 05:26:40;;;;;;;7.50;3.97;;;;;;;;;;5036918;28;20024;-77
2020/12/21 05:29:26;;;;;;;7.43;3.85;;;;;;;;;;5052119;28;20031;-76
2020/12/21 05:32:18;;;;;;;7.57;3.60;;;;;;;;;;5035519;28;20040;-76
2020/12/21 05:35:05;;;;;;;9.63;4.53;;;;;;;;;;5049095;28;20044;-76
2020/12/21 05:37:50;;;;;;;6.20;3.97;;;;;;;;;;5045297;28;20020;-76
2020/12/21 05:40:35;;;;;;;7.93;4.40;;;;;;;;;;5044986;28;20361;-76
2020/12/21 05:43:21;;;;;;;9.60;5.03;;;;;;;;;;5048099;28;20043;-76
2020/12/21 05:46:27;;;;;;;7.00;3.88;;;;;;;;;;5047151;28;20066;-76
2020/12/21 05:49:12;;;;;;;6.93;4.22;;;;;;;;;;5059398;28;20059;-76
2020/12/21 05:52:04;;;;;;;7.35;4.07;;;;;;;;;;5046780;28;20054;-76
2020/12/21 05:54:50;;;;;;;6.85;3.90;;;;;;;;;;5050499;28;20029;-77
2020/12/21 05:57:37;;;;;;;11.13;4.13;;;;;;;;;;5043485;28;20356;-77
2020/12/21 06:00:22;;;;;;;8.05;4.50;;;;;;;;;;5049836;28;20016;-76
2020/12/21 06:03:08;;;;;;;8.88;4.13;;;;;;;;;;5044864;28;20028;-76
2020/12/21 06:05:56;;;;;;;6.82;4.30;;;;;;;;;;5042774;28;20048;-76
2020/12/21 06:08:41;;;;;;;7.22;4.15;;;;;;;;;;5043288;28;20028;-76
2020/12/21 06:11:34;;;;;;;9.98;4.80;;;;;;;;;;5046042;28;20032;-76
2020/12/21 06:14:19;;;;;;;7.13;3.97;;;;;;;;;;5042572;28;20020;-76
2020/12/21 06:17:05;;;;;;;10.35;4.93;;;;;;;;;;5049542;28;20489;-77
2020/12/21 06:20:00;;;;;;;9.23;4.68;;;;;;;;;;5044180;28;20116;-76
2020/12/21 06:22:45;;;;;;;10.13;5.47;;;;;;;;;;5046387;28;20066;-76
2020/12/21 06:25:30;;;;;;;11.40;4.50;;;;;;;;;;5049679;28;20040;-76
2020/12/21 06:28:15;;;;;;;9.95;5.65;;;;;;;;;;5041782;28;20039;-76
2020/12/21 06:31:21;;;;;;;7.30;4.60;;;;;;;;;;5045911;28;20033;-76
2020/12/21 06:34:07;;;;;;;10.10;5.20;;;;;;;;;;5044121;28;20033;-76
2020/12/21 06:36:58;;;;;;;10.25;4.55;;;;;;;;;;5045753;28;20108;-76
2020/12/21 06:39:43;;;;;;;8.13;4.47;;;;;;;;;;5045154;28;20025;-77
2020/12/21 06:42:29;;;;;;;9.50;5.03;;;;;;;;;;5051396;28;20032;-77
2020/12/21 06:45:17;;;;;;;10.23;4.75;;;;;;;;;;5048570;28;20056;-77
2020/12/21 06:48:03;;;;;;;17.92;11.13;;;;;;;;;;5049068;28;20023;-76
2020/12/21 06:50:48;;;;;;;18.95;11.10;;;;;;;;;;5044642;28;20024;-77
2020/12/21 06:53:33;;;;;;;12.25;6.65;;;;;;;;;;5051400;28;20068;-77
2020/12/21 06:56:19;;;;;;;13.75;5.50;;;;;;;;;;5050014;28;20024;-76
2020/12/21 06:59:08;;;;;;;8.75;5.88;;;;;;;;;;5051450;28;20391;-77
2020/12/21 07:01:54;;;;;;;8.93;6.43;;;;;;;;;;5053372;28;20048;-77
2020/12/21 07:04:40;;;;;;;11.55;6.25;;;;;;;;;;5048373;28;20058;-77
2020/12/21 07:07:25;;;;;;;8.52;6.00;;;;;;;;;;5047543;28;20021;-78
2020/12/21 07:10:13;;;;;;;10.57;6.65;;;;;;;;;;5045957;28;20024;-78
2020/12/21 07:12:58;;;;;;;12.45;5.70;;;;;;;;;;5054150;28;20031;-79
2020/12/21 07:15:44;;;;;;;10.75;5.55;;;;;;;;;;5051997;28;20049;-79
2020/12/21 07:18:29;;;;;;;9.77;5.38;;;;;;;;;;5048903;28;20024;-78
2020/12/21 07:21:15;;;;;;;11.52;5.75;;;;;;;;;;5050907;28;20028;-76
2020/12/21 07:24:00;;;;;;;13.35;5.38;;;;;;;;;;5051442;28;20028;-78
2020/12/21 07:26:46;;;;;;;19.50;13.30;;;;;;;;;;5041736;28;20104;-77
2020/12/21 07:29:37;;;;;;;18.02;11.32;;;;;;;;;;5042703;28;20079;-78
2020/12/21 07:32:27;;;;;;;11.52;6.75;;;;;;;;;;5046520;28;20040;-77
2020/12/21 07:35:12;;;;;;;9.10;5.80;;;;;;;;;;5049004;28;20029;-77
2020/12/21 07:38:07;;;;;;;13.15;6.97;;;;;;;;;;5046495;28;20291;-78
2020/12/21 07:40:54;;;;;;;9.52;6.15;;;;;;;;;;5054735;28;20017;-77
2020/12/21 07:43:41;;;;;;;8.38;5.93;;;;;;;;;;5049136;28;20029;-77
2020/12/21 07:46:28;;;;;;;17.45;6.88;;;;;;;;;;5049315;28;20043;-78
2020/12/21 07:49:14;;;;;;;12.88;6.07;;;;;;;;;;5051101;28;20028;-78
2020/12/21 07:52:02;;;;;;;14.80;6.90;;;;;;;;;;5044451;28;20023;-77
2020/12/21 07:54:47;;;;;;;11.70;6.60;;;;;;;;;;5043814;28;20028;-78
2020/12/21 07:57:32;;;;;;;11.23;7.63;;;;;;;;;;5039513;28;20021;-78
2020/12/21 08:00:17;;;;;;;46.47;30.95;;;;;;;;;;5048975;28;20017;-78
2020/12/21 08:03:03;;;;;;;29.92;20.23;;;;;;;;;;5043626;28;20043;-77
2020/12/21 08:05:49;;;;;;;13.68;9.32;;;;;;;;;;5047232;28;20053;-78
2020/12/21 08:08:35;;;;;;;14.95;10.50;;;;;;;;;;5047714;28;20031;-77
2020/12/21 08:11:20;;;;;;;14.10;8.20;;;;;;;;;;5048338;28;20576;-77
2020/12/21 08:14:14;;;;;;;16.70;8.98;;;;;;;;;;5043930;28;20021;-79
2020/12/21 08:17:13;;;;;;;15.70;9.10;;;;;;;;;;5049370;28;20043;-76
2020/12/21 08:19:59;;;;;;;16.55;8.25;;;;;;;;;;5046422;28;20028;-76
2020/12/21 08:22:44;;;;;;;17.67;7.25;;;;;;;;;;5036440;28;20024;-76
2020/12/21 08:25:29;;;;;;;11.60;7.00;;;;;;;;;;5050346;28;20059;-76
2020/12/21 08:28:24;;;;;;;12.95;7.50;;;;;;;;;;5045315;28;20024;-77
2020/12/21 08:31:13;;;;;;;14.32;8.00;;;;;;;;;;5045235;28;20666;-77
2020/12/21 08:34:00;;;;;;;11.85;7.80;;;;;;;;;;5048247;28;20027;-77
2020/12/21 08:36:46;;;;;;;10.23;6.85;;;;;;;;;;5046686;28;20086;-76
2020/12/21 08:39:31;;;;;;;10.57;6.78;;;;;;;;;;5045760;28;20750;-78
2020/12/21 08:42:17;;;;;;;13.13;7.78;;;;;;;;;;5045910;28;20021;-78
2020/12/21 08:45:02;;;;;;;15.68;8.88;;;;;;;;;;5040173;28;20028;-78
2020/12/21 08:47:48;;;;;;;13.55;9.20;;;;;;;;;;5050927;28;20130;-78
2020/12/21 08:50:33;;;;;;;15.00;8.75;;;;;;;;;;5047230;28;20040;-78
2020/12/21 08:53:19;;;;;;;32.97;20.38;;;;;;;;;;5046914;28;20031;-80
2020/12/21 08:56:11;;;;;;;33.13;21.55;;;;;;;;;;5047893;28;20142;-78
2020/12/21 08:58:56;;;;;;;19.73;8.90;;;;;;;;;;5047154;28;20024;-79
2020/12/21 09:01:42;;;;;;;12.05;7.30;;;;;;;;;;5045814;28;20089;-77
2020/12/21 09:04:27;;;;;;;14.32;8.35;;;;;;;;;;5043085;28;20052;-77
2020/12/21 09:07:12;;;;;;;11.82;7.10;;;;;;;;;;5046727;28;20064;-77
2020/12/21 09:09:57;;;;;;;14.85;8.18;;;;;;;;;;5049301;28;20029;-76
2020/12/21 09:12:42;;;;;;;12.85;7.32;;;;;;;;;;5050111;28;20024;-76
2020/12/21 09:15:28;;;;;;;12.23;8.10;;;;;;;;;;5045916;28;20025;-76
2020/12/21 09:18:17;;;;;;;13.75;7.70;;;;;;;;;;5047127;28;20112;-77
2020/12/21 09:21:03;;;;;;;14.43;9.35;;;;;;;;;;5049445;28;20085;-78
2020/12/21 09:23:48;;;;;;;13.98;7.25;;;;;;;;;;5051040;28;20039;-78
2020/12/21 09:26:34;;;;;;;12.95;8.13;;;;;;;;;;5045638;28;20146;-77
2020/12/21 09:29:19;;;;;;;12.73;7.38;;;;;;;;;;5049005;28;20064;-77
2020/12/21 09:32:04;;;;;;;11.95;8.15;;;;;;;;;;5044088;28;20028;-77
2020/12/21 09:34:49;;;;;;;11.57;7.90;;;;;;;;;;5051497;28;20024;-78
2020/12/21 09:37:34;;;;;;;13.52;8.77;;;;;;;;;;5041271;28;20406;-79
2020/12/21 09:40:20;;;;;;;38.22;24.50;;;;;;;;;;5035287;28;20035;-76
2020/12/21 09:43:05;;;;;;;17.50;10.60;;;;;;;;;;5050563;28;20116;-77
2020/12/21 09:45:50;;;;;;;15.20;8.93;;;;;;;;;;5045982;28;20382;-78
2020/12/21 09:48:36;;;;;;;14.73;8.65;;;;;;;;;;5043787;28;20395;-78
2020/12/21 09:51:21;;;;;;;13.68;7.60;;;;;;;;;;5031328;28;20037;-76
2020/12/21 09:54:06;;;;;;;12.73;8.80;;;;;;;;;;5040846;28;20024;-80
2020/12/21 09:56:51;;;;;;;13.82;8.23;;;;;;;;;;5048964;28;20040;-77
2020/12/21 09:59:37;;;;;;;12.85;8.10;;;;;;;;;;5039488;28;20394;-77
2020/12/21 10:02:22;;;;;;;14.43;9.00;;;;;;;;;;5040391;28;20031;-79
2020/12/21 10:05:07;;;;;;;15.50;8.63;;;;;;;;;;5043612;28;20063;-79
2020/12/21 10:07:52;;;;;;;20.23;11.75;;;;;;;;;;5038879;28;20028;-78
2020/12/21 10:10:37;;;;;;;13.70;7.80;;;;;;;;;;5044327;28;20251;-79
2020/12/21 10:13:23;;;;;;;11.13;7.13;;;;;;;;;;5043744;28;20047;-78
2020/12/21 10:16:08;;;;;;;13.20;6.95;;;;;;;;;;5046350;28;20390;-78
2020/12/21 10:18:53;;;;;;;9.85;5.28;;;;;;;;;;5046159;28;20479;-78
2020/12/21 10:21:38;;;;;;;11.45;6.07;;;;;;;;;;5046381;28;20399;-78
2020/12/21 10:24:24;;;;;;;11.05;7.18;;;;;;;;;;5045472;28;20666;-78
2020/12/21 10:27:09;;;;;;;15.32;6.88;;;;;;;;;;5051073;28;20045;-78
2020/12/21 10:29:54;;;;;;;15.25;6.22;;;;;;;;;;5050927;28;20024;-77
2020/12/21 10:32:42;;;;;;;18.38;11.90;;;;;;;;;;5045536;28;20134;-78
2020/12/21 10:35:28;;;;;;;14.38;9.43;;;;;;;;;;5046546;28;20025;-78
2020/12/21 10:38:13;;;;;;;12.32;7.13;;;;;;;;;;5043450;28;20028;-78
2020/12/21 10:40:58;;;;;;;16.40;7.47;;;;;;;;;;5047764;28;20463;-79
2020/12/21 10:43:44;;;;;;;11.20;6.57;;;;;;;;;;5040979;28;20051;-78
2020/12/21 10:46:29;;;;;;;11.65;6.90;;;;;;;;;;5046370;28;20083;-78
2020/12/21 10:49:14;;;;;;;12.43;5.93;;;;;;;;;;5044278;28;20461;-77
2020/12/21 10:52:00;;;;;;;7.35;3.97;;;;;;;;;;5051333;28;20089;-79
2020/12/21 10:54:45;;;;;;;10.75;4.35;;;;;;;;;;5044216;28;20029;-79
2020/12/21 10:57:30;;;;;;;8.63;4.18;;;;;;;;;;5048596;28;20027;-81
2020/12/21 11:00:16;;;;;;;8.95;4.40;;;;;;;;;;5049790;28;20028;-80
2020/12/21 11:03:01;;;;;;;8.18;3.78;;;;;;;;;;5047208;28;20099;-81
2020/12/21 11:05:47;;;;;;;9.10;3.38;;;;;;;;;;5046528;28;20041;-80
2020/12/21 11:08:33;;;;;;;9.00;3.92;;;;;;;;;;5049347;28;20111;-81
2020/12/21 11:11:25;;;;;;;8.13;3.33;;;;;;;;;;5045978;28;20101;-81
2020/12/21 11:14:10;;;;;;;10.60;4.18;;;;;;;;;;5050753;28;20090;-80
2020/12/21 11:16:57;;;;;;;8.65;3.60;;;;;;;;;;5054555;28;20035;-79
2020/12/21 11:19:43;;;;;;;11.43;4.15;;;;;;;;;;5050046;28;20495;-79
2020/12/21 11:22:28;;;;;;;5.38;3.60;;;;;;;;;;5049673;28;20035;-78
2020/12/21 11:25:13;;;;;;;9.45;4.28;;;;;;;;;;5040786;28;20074;-77
2020/12/21 11:27:59;;;;;;;10.98;4.97;;;;;;;;;;5049620;28;20580;-75
2020/12/21 11:30:45;;;;;;;9.93;4.82;;;;;;;;;;5049669;28;20036;-76
2020/12/21 11:33:31;;;;;;;32.70;18.33;;;;;;;;;;5056883;28;20029;-74
2020/12/21 11:36:16;;;;;;;19.10;10.65;;;;;;;;;;5042704;28;20502;-73
2020/12/21 11:39:02;;;;;;;15.63;4.60;;;;;;;;;;5047550;28;20115;-76
2020/12/21 11:41:47;;;;;;;7.00;3.50;;;;;;;;;;5044446;28;20102;-75
2020/12/21 11:44:32;;;;;;;9.57;4.75;;;;;;;;;;5046828;28;20045;-83
2020/12/21 11:47:18;;;;;;;9.55;3.90;;;;;;;;;;5051251;28;20162;-82
2020/12/21 11:50:06;;;;;;;6.22;3.92;;;;;;;;;;5053511;28;20039;-83
2020/12/21 11:52:52;;;;;;;7.13;3.97;;;;;;;;;;5048213;28;20055;-80
2020/12/21 11:55:38;;;;;;;7.88;4.25;;;;;;;;;;5054821;28;20460;-79
2020/12/21 11:58:23;;;;;;;9.88;4.13;;;;;;;;;;5046154;28;20031;-82
2020/12/21 12:01:08;;;;;;;11.55;3.50;;;;;;;;;;5045571;28;20107;-80
2020/12/21 12:03:54;;;;;;;6.43;3.60;;;;;;;;;;5047203;28;21064;-80
2020/12/21 12:06:41;;;;;;;6.70;3.53;;;;;;;;;;5045711;28;20431;-80
2020/12/21 12:09:27;;;;;;;7.90;3.60;;;;;;;;;;5055389;28;20046;-80
2020/12/21 12:12:15;;;;;;;5.70;3.35;;;;;;;;;;5043388;28;20077;-80
2020/12/21 12:15:00;;;;;;;4.93;2.50;;;;;;;;;;5046002;28;20371;-79
2020/12/21 12:17:46;;;;;;;4.95;2.65;;;;;;;;;;5043913;28;20119;-81
2020/12/21 12:20:31;;;;;;;3.67;2.65;;;;;;;;;;5050116;28;20032;-81
2020/12/21 12:23:16;;;;;;;5.55;2.88;;;;;;;;;;5041986;28;20043;-81
2020/12/21 12:26:02;;;;;;;5.25;2.65;;;;;;;;;;5050554;28;20313;-80
2020/12/21 12:28:47;;;;;;;5.90;3.03;;;;;;;;;;5046482;28;20028;-81
2020/12/21 12:31:32;;;;;;;7.80;3.00;;;;;;;;;;5043556;28;20325;-79
2020/12/21 12:34:18;;;;;;;8.55;3.25;;;;;;;;;;5039033;28;20449;-80
2020/12/21 12:37:03;;;;;;;5.88;3.33;;;;;;;;;;5048549;28;20566;-80
2020/12/21 12:39:48;;;;;;;7.70;3.28;;;;;;;;;;5044886;28;20028;-80
2020/12/21 12:42:33;;;;;;;7.72;3.47;;;;;;;;;;5050920;28;20564;-83
2020/12/21 12:45:19;;;;;;;6.82;3.30;;;;;;;;;;5049837;28;20451;-80
2020/12/21 12:48:04;;;;;;;9.05;3.30;;;;;;;;;;5047304;28;20110;-79
2020/12/21 12:50:49;;;;;;;5.70;3.28;;;;;;;;;;5051002;28;20089;-79
2020/12/21 12:53:35;;;;;;;11.73;3.45;;;;;;;;;;5047480;28;20040;-79
2020/12/21 12:56:23;;;;;;;5.07;2.95;;;;;;;;;;5053087;28;20016;-79
2020/12/21 12:59:08;;;;;;;6.55;3.83;;;;;;;;;;5043551;28;20067;-81
2020/12/21 13:01:54;;;;;;;7.90;4.10;;;;;;;;;;5045657;28;20024;-82
2020/12/21 13:04:39;;;;;;;7.35;3.92;;;;;;;;;;5044232;28;20076;-83
2020/12/21 13:07:25;;;;;;;8.40;4.10;;;;;;;;;;5050115;28;20021;-80
2020/12/21 13:10:10;;;;;;;7.05;3.78;;;;;;;;;;5040390;28;20075;-82
2020/12/21 13:12:55;;;;;;;8.93;3.20;;;;;;;;;;5044726;28;20025;-85
2020/12/21 13:15:40;;;;;;;8.18;3.63;;;;;;;;;;5047564;28;20027;-82
2020/12/21 13:18:26;;;;;;;6.60;3.90;;;;;;;;;;5046052;28;20044;-79
2020/12/21 13:21:18;;;;;;;4.57;2.97;;;;;;;;;;5047762;28;20051;-81
2020/12/21 13:24:04;;;;;;;5.13;3.28;;;;;;;;;;5045335;28;20037;-80
2020/12/21 13:26:50;;;;;;;7.18;3.88;;;;;;;;;;5052766;28;20107;-79
2020/12/21 13:29:35;;;;;;;6.32;3.40;;;;;;;;;;5045137;28;20033;-78
2020/12/21 13:32:20;;;;;;;6.93;3.28;;;;;;;;;;5043609;28;20471;-85
2020/12/21 13:35:05;;;;;;;8.02;3.83;;;;;;;;;;5045508;28;20021;-83
2020/12/21 13:37:51;;;;;;;5.38;3.30;;;;;;;;;;5048202;28;20024;-79
2020/12/21 13:40:36;;;;;;;5.47;3.10;;;;;;;;;;5040216;28;20020;-79
2020/12/21 13:43:21;;;;;;;7.75;3.53;;;;;;;;;;5046005;28;20471;-79
2020/12/21 13:46:10;;;;;;;12.70;7.15;;;;;;;;;;5040792;28;20060;-79
2020/12/21 13:48:55;;;;;;;7.28;4.07;;;;;;;;;;5054655;28;20025;-78
2020/12/21 13:51:40;;;;;;;7.13;4.10;;;;;;;;;;5050597;28;20108;-78
2020/12/21 13:54:25;;;;;;;7.10;4.22;;;;;;;;;;5051073;28;20103;-80
2020/12/21 13:57:11;;;;;;;9.65;4.40;;;;;;;;;;5031500;28;20032;-79
2020/12/21 13:59:56;;;;;;;8.10;4.90;;;;;;;;;;5048685;28;20107;-78
2020/12/21 14:02:41;;;;;;;11.77;5.72;;;;;;;;;;5048209;28;20517;-79
2020/12/21 14:05:27;;;;;;;9.63;5.40;;;;;;;;;;5056445;28;20056;-79
2020/12/21 14:08:12;;;;;;;10.23;5.28;;;;;;;;;;5048370;28;20033;-79
2020/12/21 14:10:57;;;;;;;10.63;6.05;;;;;;;;;;5046625;28;20028;-79
2020/12/21 14:13:42;;;;;;;11.73;5.95;;;;;;;;;;5047534;28;20418;-79
2020/12/21 14:16:27;;;;;;;15.40;8.80;;;;;;;;;;5039258;28;20033;-79
2020/12/21 14:19:12;;;;;;;13.18;7.25;;;;;;;;;;5054117;28;20458;-79
2020/12/21 14:21:58;;;;;;;13.65;7.05;;;;;;;;;;5043277;28;20029;-79
2020/12/21 14:24:43;;;;;;;11.23;5.68;;;;;;;;;;5049907;28;20017;-78
2020/12/21 14:27:28;;;;;;;11.75;5.30;;;;;;;;;;5047161;28;20575;-78
2020/12/21 14:30:13;;;;;;;9.45;5.45;;;;;;;;;;5053021;28;20482;-78
2020/12/21 14:32:58;;;;;;;9.90;5.32;;;;;;;;;;5045808;28;20046;-78
2020/12/21 14:35:44;;;;;;;11.10;4.85;;;;;;;;;;5047733;28;20013;-79
2020/12/21 14:38:29;;;;;;;11.38;5.50;;;;;;;;;;5047047;28;20029;-78
2020/12/21 14:41:15;;;;;;;11.25;7.00;;;;;;;;;;5051274;28;20024;-79
2020/12/21 14:44:00;;;;;;;43.20;29.60;;;;;;;;;;5048306;28;20016;-79
2020/12/21 14:46:45;;;;;;;12.50;6.38;;;;;;;;;;5039223;28;20104;-78
2020/12/21 14:49:31;;;;;;;10.75;5.97;;;;;;;;;;5049284;28;20036;-78
2020/12/21 14:52:16;;;;;;;12.52;5.72;;;;;;;;;;5051202;28;20107;-78
2020/12/21 14:55:01;;;;;;;9.50;5.38;;;;;;;;;;5045008;28;20078;-78
2020/12/21 14:57:47;;;;;;;9.35;5.15;;;;;;;;;;5053445;28;20024;-78
2020/12/21 15:00:32;;;;;;;10.27;5.07;;;;;;;;;;5044975;28;20433;-78
2020/12/21 15:03:17;;;;;;;10.48;6.18;;;;;;;;;;5041886;28;20020;-78
2020/12/21 15:06:02;;;;;;;11.35;5.82;;;;;;;;;;5053833;28;20047;-79
2020/12/21 15:08:48;;;;;;;11.27;5.28;;;;;;;;;;5049818;28;20363;-78
2020/12/21 15:11:34;;;;;;;9.38;5.85;;;;;;;;;;5045667;28;20062;-79
2020/12/21 15:14:19;;;;;;;8.20;5.00;;;;;;;;;;5040630;28;20048;-78
2020/12/21 15:17:04;;;;;;;9.25;5.35;;;;;;;;;;5054032;28;20028;-78
2020/12/21 15:19:49;;;;;;;12.32;5.13;;;;;;;;;;5039121;28;20021;-79
2020/12/21 15:22:35;;;;;;;12.63;6.32;;;;;;;;;;5051022;28;20036;-78
2020/12/21 15:25:20;;;;;;;11.55;5.47;;;;;;;;;;5044647;28;20028;-79
2020/12/21 15:28:05;;;;;;;9.40;4.85;;;;;;;;;;5045805;28;20029;-78
2020/12/21 15:30:50;;;;;;;9.68;5.00;;;;;;;;;;5040763;28;20021;-78
2020/12/21 15:33:36;;;;;;;15.88;9.18;;;;;;;;;;5048281;28;20032;-78
2020/12/21 15:36:21;;;;;;;18.80;10.82;;;;;;;;;;5043168;28;20044;-78
2020/12/21 15:39:07;;;;;;;15.52;8.32;;;;;;;;;;5052762;28;20537;-78
2020/12/21 15:41:52;;;;;;;11.70;6.00;;;;;;;;;;5050087;28;20194;-79
2020/12/21 15:44:37;;;;;;;10.95;6.07;;;;;;;;;;5046707;28;20028;-77
2020/12/21 15:47:22;;;;;;;11.35;5.47;;;;;;;;;;5043899;28;20067;-77
2020/12/21 15:50:08;;;;;;;11.85;5.97;;;;;;;;;;5046850;28;20105;-78
2020/12/21 15:52:53;;;;;;;12.90;7.18;;;;;;;;;;5050278;28;20031;-78
2020/12/21 15:55:38;;;;;;;12.38;7.50;;;;;;;;;;5044097;28;20028;-79
2020/12/21 15:58:23;;;;;;;12.43;5.80;;;;;;;;;;5051176;28;20056;-79
2020/12/21 16:01:09;;;;;;;9.73;5.20;;;;;;;;;;5049139;28;20044;-79
2020/12/21 16:03:54;;;;;;;10.30;6.20;;;;;;;;;;5045631;28;20529;-79
2020/12/21 16:06:39;;;;;;;15.57;5.85;;;;;;;;;;5045407;28;20557;-78
2020/12/21 16:09:24;;;;;;;11.50;6.38;;;;;;;;;;5035277;28;20024;-79
2020/12/21 16:12:12;;;;;;;11.80;5.78;;;;;;;;;;5045159;28;20045;-79
2020/12/21 16:14:57;;;;;;;12.40;6.80;;;;;;;;;;5047535;28;20042;-79
2020/12/21 16:17:42;;;;;;;11.43;5.80;;;;;;;;;;5044687;28;20027;-80
2020/12/21 16:20:27;;;;;;;15.00;8.23;;;;;;;;;;5040735;28;20031;-77
2020/12/21 16:23:12;;;;;;;12.48;5.90;;;;;;;;;;5047732;28;20028;-77
2020/12/21 16:25:58;;;;;;;10.70;5.82;;;;;;;;;;5051599;28;20028;-78